createdAt,value
2018-09-11T00:00:04.555Z,1011.33
2018-09-11T00:01:04.548Z,1011.32
2018-09-11T00:02:04.571Z,1011.41
2018-09-11T00:03:04.559Z,1011.40
2018-09-11T00:04:04.608Z,1011.38
2018-09-11T00:05:04.564Z,1011.39
2018-09-11T00:06:04.558Z,1011.39
2018-09-11T00:07:04.691Z,1011.37
2018-09-11T00:08:04.572Z,1011.42
2018-09-11T00:09:04.576Z,1011.41
2018-09-11T00:10:04.580Z,1011.40
2018-09-11T00:11:04.581Z,1011.42
2018-09-11T00:12:04.587Z,1011.42
2018-09-11T00:13:04.591Z,1011.44
2018-09-11T00:14:04.588Z,1011.43
2018-09-11T00:15:04.592Z,1011.41
2018-09-11T00:16:04.622Z,1011.38
2018-09-11T00:17:04.626Z,1011.35
2018-09-11T00:18:04.601Z,1011.35
2018-09-11T00:19:04.610Z,1011.36
2018-09-11T00:20:04.616Z,1011.38
2018-09-11T00:21:04.633Z,1011.34
2018-09-11T00:22:04.619Z,1011.34
2018-09-11T00:23:04.625Z,1011.33
2018-09-11T00:24:04.628Z,1011.34
2018-09-11T00:25:04.630Z,1011.32
2018-09-11T00:26:04.649Z,1011.35
2018-09-11T00:27:04.649Z,1011.31
2018-09-11T00:28:04.633Z,1011.29
2018-09-11T00:29:04.642Z,1011.30
2018-09-11T00:30:04.649Z,1011.31
2018-09-11T00:31:04.646Z,1011.32
2018-09-11T00:32:04.644Z,1011.30
2018-09-11T00:33:04.656Z,1011.29
2018-09-11T00:34:04.676Z,1011.30
2018-09-11T00:35:04.659Z,1011.25
2018-09-11T00:36:04.657Z,1011.25
2018-09-11T00:37:04.665Z,1011.21
2018-09-11T00:38:04.666Z,1011.25
2018-09-11T00:39:04.671Z,1011.26
2018-09-11T00:40:04.676Z,1011.27
2018-09-11T00:41:04.688Z,1011.31
2018-09-11T00:42:04.835Z,1011.34
2018-09-11T00:43:04.688Z,1011.33
2018-09-11T00:44:04.685Z,1011.33
2018-09-11T00:45:04.775Z,1011.33
2018-09-11T00:46:04.753Z,1011.32
2018-09-11T00:47:04.689Z,1011.31
2018-09-11T00:48:04.751Z,1011.33
2018-09-11T00:49:04.699Z,1011.34
2018-09-11T00:50:04.708Z,1011.34
2018-09-11T00:51:04.733Z,1011.40
2018-09-11T00:52:04.725Z,1011.42
2018-09-11T00:53:04.712Z,1011.40
2018-09-11T00:54:04.713Z,1011.41
2018-09-11T00:55:04.735Z,1011.39
2018-09-11T00:56:04.723Z,1011.42
2018-09-11T00:57:04.733Z,1011.43
2018-09-11T00:58:04.726Z,1011.47
2018-09-11T00:59:04.726Z,1011.46
2018-09-11T01:00:04.733Z,1011.41
2018-09-11T01:01:04.766Z,1011.41
2018-09-11T01:02:04.735Z,1011.42
2018-09-11T01:03:04.748Z,1011.47
2018-09-11T01:04:04.771Z,1011.42
2018-09-11T01:05:04.758Z,1011.47
2018-09-11T01:06:04.745Z,1011.50
2018-09-11T01:07:04.748Z,1011.50
2018-09-11T01:08:04.785Z,1011.51
2018-09-11T01:09:04.763Z,1011.48
2018-09-11T01:10:04.806Z,1011.47
2018-09-11T01:11:04.764Z,1011.51
2018-09-11T01:12:04.798Z,1011.51
2018-09-11T01:13:04.808Z,1011.54
2018-09-11T01:14:04.794Z,1011.54
2018-09-11T01:15:04.775Z,1011.56
2018-09-11T01:16:04.789Z,1011.59
2018-09-11T01:17:04.851Z,1011.57
2018-09-11T01:18:04.950Z,1011.58
2018-09-11T01:19:04.783Z,1011.55
2018-09-11T01:20:04.812Z,1011.58
2018-09-11T01:21:04.815Z,1011.60
2018-09-11T01:22:04.840Z,1011.60
2018-09-11T01:23:04.796Z,1011.60
2018-09-11T01:24:04.815Z,1011.63
2018-09-11T01:25:04.804Z,1011.63
2018-09-11T01:26:04.921Z,1011.62
2018-09-11T01:27:04.823Z,1011.63
2018-09-11T01:28:04.818Z,1011.64
2018-09-11T01:29:04.814Z,1011.66
2018-09-11T01:30:04.858Z,1011.64
2018-09-11T01:31:04.832Z,1011.64
2018-09-11T01:32:04.847Z,1011.63
2018-09-11T01:33:04.838Z,1011.64
2018-09-11T01:34:04.821Z,1011.59
2018-09-11T01:35:04.822Z,1011.65
2018-09-11T01:36:04.851Z,1011.64
2018-09-11T01:37:04.850Z,1011.64
2018-09-11T01:38:04.836Z,1011.67
2018-09-11T01:39:04.866Z,1011.67
2018-09-11T01:40:04.844Z,1011.70
2018-09-11T01:41:04.868Z,1011.65
2018-09-11T01:42:04.860Z,1011.67
2018-09-11T01:43:04.859Z,1011.71
2018-09-11T01:44:04.888Z,1011.68
2018-09-11T01:45:04.844Z,1011.70
2018-09-11T01:46:04.906Z,1011.71
2018-09-11T01:47:04.856Z,1011.71
2018-09-11T01:48:04.864Z,1011.75
2018-09-11T01:49:04.889Z,1011.71
2018-09-11T01:50:04.866Z,1011.75
2018-09-11T01:51:04.891Z,1011.76
2018-09-11T01:52:04.897Z,1011.71
2018-09-11T01:53:04.906Z,1011.78
2018-09-11T01:54:04.981Z,1011.81
2018-09-11T01:55:04.878Z,1011.78
2018-09-11T01:56:04.931Z,1011.83
2018-09-11T01:57:04.913Z,1011.79
2018-09-11T01:58:04.918Z,1011.79
2018-09-11T01:59:04.906Z,1011.77
2018-09-11T02:00:04.894Z,1011.75
2018-09-11T02:01:04.896Z,1011.75
2018-09-11T02:02:04.924Z,1011.78
2018-09-11T02:03:04.898Z,1011.76
2018-09-11T02:04:04.973Z,1011.78
2018-09-11T02:05:04.926Z,1011.80
2018-09-11T02:06:04.904Z,1011.80
2018-09-11T02:07:04.953Z,1011.82
2018-09-11T02:08:04.908Z,1011.79
2018-09-11T02:09:04.946Z,1011.83
2018-09-11T02:10:04.950Z,1011.82
2018-09-11T02:11:04.915Z,1011.85
2018-09-11T02:12:04.912Z,1011.85
2018-09-11T02:13:04.911Z,1011.79
2018-09-11T02:14:04.923Z,1011.81
2018-09-11T02:15:04.924Z,1011.81
2018-09-11T02:16:04.937Z,1011.84
2018-09-11T02:17:04.932Z,1011.80
2018-09-11T02:18:04.968Z,1011.81
2018-09-11T02:19:04.934Z,1011.84
2018-09-11T02:20:04.966Z,1011.80
2018-09-11T02:21:04.940Z,1011.79
2018-09-11T02:22:05.031Z,1011.79
2018-09-11T02:23:04.945Z,1011.77
2018-09-11T02:24:04.970Z,1011.77
2018-09-11T02:25:04.949Z,1011.79
2018-09-11T02:26:04.956Z,1011.81
2018-09-11T02:27:04.985Z,1011.81
2018-09-11T02:28:04.947Z,1011.83
2018-09-11T02:29:04.959Z,1011.83
2018-09-11T02:30:04.963Z,1011.80
2018-09-11T02:31:04.954Z,1011.83
2018-09-11T02:32:04.960Z,1011.88
2018-09-11T02:33:04.965Z,1011.85
2018-09-11T02:34:04.965Z,1011.86
2018-09-11T02:35:04.964Z,1011.82
2018-09-11T02:36:04.992Z,1011.86
2018-09-11T02:37:04.969Z,1011.86
2018-09-11T02:38:04.978Z,1011.86
2018-09-11T02:39:04.968Z,1011.91
2018-09-11T02:40:04.976Z,1011.90
2018-09-11T02:41:04.980Z,1011.93
2018-09-11T02:42:04.976Z,1011.97
2018-09-11T02:43:04.985Z,1011.91
2018-09-11T02:44:04.988Z,1011.97
2018-09-11T02:45:04.990Z,1011.96
2018-09-11T02:46:04.997Z,1011.97
2018-09-11T02:47:04.993Z,1012.02
2018-09-11T02:48:05.021Z,1012.04
2018-09-11T02:49:05.014Z,1012.01
2018-09-11T02:50:04.992Z,1011.99
2018-09-11T02:51:04.998Z,1012.00
2018-09-11T02:52:04.999Z,1011.99
2018-09-11T02:53:05.036Z,1012.00
2018-09-11T02:54:04.999Z,1012.03
2018-09-11T02:55:05.008Z,1012.02
2018-09-11T03:14:18.113Z,1012.20
2018-09-11T03:15:18.073Z,1012.18
2018-09-11T03:16:18.066Z,1012.17
2018-09-11T03:17:18.102Z,1012.21
2018-09-11T03:18:18.062Z,1012.19
2018-09-11T03:19:18.064Z,1012.18
2018-09-11T03:20:18.063Z,1012.23
2018-09-11T03:21:18.061Z,1012.21
2018-09-11T03:22:18.059Z,1012.23
2018-09-11T03:23:18.060Z,1012.24
2018-09-11T03:24:18.061Z,1012.25
2018-09-11T03:25:18.056Z,1012.26
2018-09-11T03:26:18.060Z,1012.24
2018-09-11T03:27:18.068Z,1012.30
2018-09-11T03:28:18.058Z,1012.29
2018-09-11T03:29:18.070Z,1012.27
2018-09-11T03:30:18.108Z,1012.27
2018-09-11T03:31:18.089Z,1012.26
2018-09-11T03:32:18.069Z,1012.30
2018-09-11T03:33:18.075Z,1012.29
2018-09-11T03:34:18.066Z,1012.28
2018-09-11T03:35:18.082Z,1012.27
2018-09-11T03:36:18.073Z,1012.27
2018-09-11T03:37:18.084Z,1012.30
2018-09-11T03:38:18.083Z,1012.31
2018-09-11T03:39:18.092Z,1012.29
2018-09-11T03:40:18.084Z,1012.31
2018-09-11T03:41:18.081Z,1012.31
2018-09-11T03:42:18.085Z,1012.32
2018-09-11T03:43:18.090Z,1012.29
2018-09-11T03:44:18.141Z,1012.30
2018-09-11T03:45:18.083Z,1012.31
2018-09-11T03:46:18.104Z,1012.33
2018-09-11T03:47:18.091Z,1012.29
2018-09-11T03:48:18.101Z,1012.33
2018-09-11T03:49:18.090Z,1012.37
2018-09-11T03:50:18.098Z,1012.34
2018-09-11T03:51:18.092Z,1012.33
2018-09-11T03:52:18.108Z,1012.34
2018-09-11T03:53:18.095Z,1012.37
2018-09-11T03:54:18.101Z,1012.34
2018-09-11T03:55:18.118Z,1012.36
2018-09-11T03:56:18.133Z,1012.40
2018-09-11T03:57:18.110Z,1012.41
2018-09-11T03:58:18.284Z,1012.38
2018-09-11T03:59:18.220Z,1012.39
2018-09-11T04:00:18.119Z,1012.37
2018-09-11T04:01:18.135Z,1012.38
2018-09-11T04:02:18.143Z,1012.40
2018-09-11T04:03:18.120Z,1012.40
2018-09-11T04:04:18.140Z,1012.38
2018-09-11T04:05:18.170Z,1012.42
2018-09-11T04:06:18.174Z,1012.43
2018-09-11T04:07:18.139Z,1012.44
2018-09-11T04:08:18.173Z,1012.43
2018-09-11T04:09:18.150Z,1012.42
2018-09-11T04:10:18.152Z,1012.46
2018-09-11T04:11:18.123Z,1012.46
2018-09-11T04:12:18.139Z,1012.42
2018-09-11T04:13:18.132Z,1012.42
2018-09-11T04:14:18.192Z,1012.41
2018-09-11T04:15:18.133Z,1012.40
2018-09-11T04:16:18.138Z,1012.42
2018-09-11T04:17:18.160Z,1012.41
2018-09-11T04:18:18.170Z,1012.41
2018-09-11T04:19:18.257Z,1012.40
2018-09-11T04:20:18.160Z,1012.40
2018-09-11T04:21:18.175Z,1012.42
2018-09-11T04:22:18.176Z,1012.42
2018-09-11T04:23:18.156Z,1012.44
2018-09-11T04:24:18.175Z,1012.43
2018-09-11T04:25:18.445Z,1012.45
2018-09-11T04:26:18.209Z,1012.41
2018-09-11T04:27:18.207Z,1012.40
2018-09-11T04:28:18.159Z,1012.39
2018-09-11T04:29:18.196Z,1012.37
2018-09-11T04:30:18.246Z,1012.36
2018-09-11T04:31:18.204Z,1012.39
2018-09-11T04:32:18.358Z,1012.36
2018-09-11T04:33:18.178Z,1012.40
2018-09-11T04:34:18.205Z,1012.37
2018-09-11T04:35:18.212Z,1012.40
2018-09-11T04:36:18.194Z,1012.42
2018-09-11T04:37:18.197Z,1012.42
2018-09-11T04:38:18.174Z,1012.41
2018-09-11T04:39:18.204Z,1012.43
2018-09-11T04:40:18.198Z,1012.43
2018-09-11T04:41:18.216Z,1012.43
2018-09-11T04:42:18.210Z,1012.41
2018-09-11T04:43:18.222Z,1012.39
2018-09-11T04:44:18.296Z,1012.40
2018-09-11T04:45:18.184Z,1012.38
2018-09-11T04:46:18.192Z,1012.39
2018-09-11T04:47:18.228Z,1012.38
2018-09-11T04:48:18.240Z,1012.36
2018-09-11T04:49:18.194Z,1012.41
2018-09-11T04:50:18.203Z,1012.39
2018-09-11T04:51:18.194Z,1012.39
2018-09-11T04:52:18.229Z,1012.40
2018-09-11T04:53:18.225Z,1012.39
2018-09-11T04:54:18.232Z,1012.42
2018-09-11T04:55:18.273Z,1012.44
2018-09-11T04:56:18.200Z,1012.43
2018-09-11T04:57:18.198Z,1012.42
2018-09-11T04:58:18.210Z,1012.44
2018-09-11T04:59:18.228Z,1012.47
2018-09-11T05:00:18.218Z,1012.49
2018-09-11T05:01:18.214Z,1012.46
2018-09-11T05:02:18.217Z,1012.48
2018-09-11T05:03:18.235Z,1012.49
2018-09-11T05:04:18.221Z,1012.50
2018-09-11T05:05:18.221Z,1012.50
2018-09-11T05:06:18.223Z,1012.52
2018-09-11T05:07:18.223Z,1012.47
2018-09-11T05:08:18.227Z,1012.52
2018-09-11T05:09:18.219Z,1012.56
2018-09-11T05:10:18.224Z,1012.56
2018-09-11T05:11:18.290Z,1012.52
2018-09-11T05:12:18.253Z,1012.52
2018-09-11T05:13:18.251Z,1012.54
2018-09-11T05:14:18.230Z,1012.50
2018-09-11T05:15:18.269Z,1012.58
2018-09-11T05:16:18.254Z,1012.55
2018-09-11T05:17:18.268Z,1012.56
2018-09-11T05:18:18.244Z,1012.61
2018-09-11T05:19:18.341Z,1012.58
2018-09-11T05:20:18.245Z,1012.58
2018-09-11T05:21:18.255Z,1012.58
2018-09-11T05:22:18.257Z,1012.59
2018-09-11T05:23:18.261Z,1012.62
2018-09-11T05:24:18.279Z,1012.62
2018-09-11T05:25:18.248Z,1012.62
2018-09-11T05:26:18.247Z,1012.64
2018-09-11T05:27:18.302Z,1012.69
2018-09-11T05:28:18.269Z,1012.68
2018-09-11T05:29:18.260Z,1012.65
2018-09-11T05:30:18.285Z,1012.66
2018-09-11T05:31:18.297Z,1012.69
2018-09-11T05:32:18.284Z,1012.63
2018-09-11T05:33:18.287Z,1012.66
2018-09-11T05:34:18.266Z,1012.63
2018-09-11T05:35:18.302Z,1012.66
2018-09-11T05:36:18.271Z,1012.68
2018-09-11T05:37:18.288Z,1012.68
2018-09-11T05:38:18.280Z,1012.74
2018-09-11T05:39:18.286Z,1012.83
2018-09-11T05:40:18.285Z,1012.84
2018-09-11T05:41:18.310Z,1012.82
2018-09-11T05:42:18.323Z,1012.81
2018-09-11T05:43:18.295Z,1012.85
2018-09-11T05:44:18.308Z,1012.77
2018-09-11T05:45:18.308Z,1012.78
2018-09-11T05:46:18.319Z,1012.78
2018-09-11T05:47:18.325Z,1012.78
2018-09-11T05:48:18.339Z,1012.79
2018-09-11T05:49:18.344Z,1012.77
2018-09-11T05:50:18.327Z,1012.79
2018-09-11T05:51:18.333Z,1012.80
2018-09-11T05:52:18.337Z,1012.77
2018-09-11T05:53:18.336Z,1012.75
2018-09-11T05:54:18.340Z,1012.72
2018-09-11T05:55:18.355Z,1012.72
2018-09-11T05:56:18.348Z,1012.69
2018-09-11T05:57:18.355Z,1012.69
2018-09-11T05:58:18.397Z,1012.66
2018-09-11T05:59:18.365Z,1012.65
2018-09-11T06:00:18.364Z,1012.68
2018-09-11T06:01:18.378Z,1012.69
2018-09-11T06:02:18.383Z,1012.73
2018-09-11T06:03:18.377Z,1012.71
2018-09-11T06:04:18.378Z,1012.70
2018-09-11T06:05:18.382Z,1012.72
2018-09-11T06:06:18.379Z,1012.70
2018-09-11T06:07:18.388Z,1012.71
2018-09-11T06:08:18.391Z,1012.75
2018-09-11T06:09:18.389Z,1012.76
2018-09-11T06:10:18.402Z,1012.77
2018-09-11T06:11:18.399Z,1012.76
2018-09-11T06:12:18.414Z,1012.81
2018-09-11T06:13:18.420Z,1012.79
2018-09-11T06:14:18.408Z,1012.83
2018-09-11T06:15:18.417Z,1012.82
2018-09-11T06:16:18.429Z,1012.82
2018-09-11T06:17:18.440Z,1012.84
2018-09-11T06:18:18.419Z,1012.79
2018-09-11T06:19:18.430Z,1012.82
2018-09-11T06:20:18.430Z,1012.85
2018-09-11T06:21:18.494Z,1012.81
2018-09-11T06:22:18.431Z,1012.81
2018-09-11T06:23:18.433Z,1012.79
2018-09-11T06:24:18.459Z,1012.78
2018-09-11T06:25:18.442Z,1012.76
2018-09-11T06:26:18.448Z,1012.77
2018-09-11T06:27:18.476Z,1012.76
2018-09-11T06:28:18.461Z,1012.74
2018-09-11T06:29:18.476Z,1012.76
2018-09-11T06:30:18.456Z,1012.77
2018-09-11T06:31:18.476Z,1012.76
2018-09-11T06:32:18.468Z,1012.79
2018-09-11T06:33:18.457Z,1012.79
2018-09-11T06:34:18.466Z,1012.80
2018-09-11T06:35:18.471Z,1012.78
2018-09-11T06:36:18.487Z,1012.78
2018-09-11T06:37:18.476Z,1012.78
2018-09-11T06:38:18.489Z,1012.70
2018-09-11T06:39:18.477Z,1012.68
2018-09-11T06:40:18.486Z,1012.72
2018-09-11T06:41:18.536Z,1012.70
2018-09-11T06:42:18.480Z,1012.71
2018-09-11T06:43:18.493Z,1012.70
2018-09-11T06:44:18.499Z,1012.74
2018-09-11T06:45:18.495Z,1012.73
2018-09-11T06:46:18.531Z,1012.77
2018-09-11T06:47:18.507Z,1012.77
2018-09-11T06:48:18.507Z,1012.79
2018-09-11T06:49:18.509Z,1012.82
2018-09-11T06:50:18.507Z,1012.83
2018-09-11T06:51:18.540Z,1012.82
2018-09-11T06:52:18.534Z,1012.83
2018-09-11T06:53:18.531Z,1012.86
2018-09-11T06:54:18.545Z,1012.89
2018-09-11T06:55:18.531Z,1012.91
2018-09-11T06:56:18.528Z,1012.91
2018-09-11T06:57:18.524Z,1012.90
2018-09-11T06:58:18.527Z,1012.94
2018-09-11T06:59:18.533Z,1012.94
2018-09-11T07:00:18.561Z,1012.95
2018-09-11T07:01:18.535Z,1012.97
2018-09-11T07:02:18.542Z,1012.93
2018-09-11T07:03:18.541Z,1012.96
2018-09-11T07:04:18.560Z,1012.92
2018-09-11T07:05:18.566Z,1012.97
2018-09-11T07:06:18.597Z,1012.93
2018-09-11T07:07:18.555Z,1012.96
2018-09-11T07:08:18.599Z,1012.94
2018-09-11T07:09:18.643Z,1012.94
2018-09-11T07:10:18.597Z,1012.95
2018-09-11T07:11:18.567Z,1012.94
2018-09-11T07:12:18.578Z,1012.95
2018-09-11T07:13:18.564Z,1012.97
2018-09-11T07:14:18.576Z,1012.97
2018-09-11T07:15:18.569Z,1012.97
2018-09-11T07:16:18.593Z,1013.02
2018-09-11T07:17:18.593Z,1012.99
2018-09-11T07:18:18.583Z,1012.96
2018-09-11T07:19:18.588Z,1012.98
2018-09-11T07:20:18.842Z,1013.01
2018-09-11T07:21:18.599Z,1013.00
2018-09-11T07:22:18.596Z,1013.02
2018-09-11T07:23:18.615Z,1013.02
2018-09-11T07:24:18.601Z,1012.99
2018-09-11T07:25:18.597Z,1012.98
2018-09-11T07:26:18.612Z,1012.98
2018-09-11T07:27:18.615Z,1012.96
2018-09-11T07:28:18.627Z,1013.00
2018-09-11T07:29:18.661Z,1012.97
2018-09-11T07:30:18.635Z,1013.00
2018-09-11T07:31:18.672Z,1013.00
2018-09-11T07:32:18.673Z,1013.03
2018-09-11T07:33:18.623Z,1013.04
2018-09-11T07:34:18.623Z,1013.05
2018-09-11T07:35:18.640Z,1013.05
2018-09-11T07:36:18.632Z,1013.04
2018-09-11T07:37:18.635Z,1013.05
2018-09-11T07:38:18.634Z,1013.06
2018-09-11T07:39:18.648Z,1013.05
2018-09-11T07:40:18.644Z,1013.07
2018-09-11T07:41:18.645Z,1013.02
2018-09-11T07:42:18.640Z,1013.06
2018-09-11T07:43:18.648Z,1013.00
2018-09-11T07:44:18.674Z,1012.99
2018-09-11T07:45:18.703Z,1012.96
2018-09-11T07:46:18.654Z,1012.94
2018-09-11T07:47:18.666Z,1012.96
2018-09-11T07:48:18.667Z,1012.96
2018-09-11T07:49:18.690Z,1012.98
2018-09-11T07:50:18.672Z,1012.92
2018-09-11T07:51:18.672Z,1012.96
2018-09-11T07:52:18.710Z,1012.96
2018-09-11T07:53:18.682Z,1012.94
2018-09-11T07:54:18.686Z,1012.97
2018-09-11T07:55:18.688Z,1012.97
2018-09-11T07:56:18.691Z,1012.99
2018-09-11T07:57:18.688Z,1013.02
2018-09-11T07:58:18.690Z,1013.03
2018-09-11T07:59:18.696Z,1013.05
2018-09-11T08:00:18.697Z,1013.03
2018-09-11T08:01:18.702Z,1013.07
2018-09-11T08:02:18.705Z,1013.04
2018-09-11T08:03:18.706Z,1013.05
2018-09-11T08:04:18.810Z,1013.06
2018-09-11T08:05:18.826Z,1013.05
2018-09-11T08:06:18.718Z,1013.02
2018-09-11T08:07:18.715Z,1013.05
2018-09-11T08:08:18.715Z,1013.06
2018-09-11T08:09:18.728Z,1013.08
2018-09-11T08:10:18.720Z,1013.10
2018-09-11T08:11:18.728Z,1013.07
2018-09-11T08:12:18.741Z,1013.10
2018-09-11T08:13:18.734Z,1013.08
2018-09-11T08:14:18.740Z,1013.09
2018-09-11T08:15:18.742Z,1013.12
2018-09-11T08:16:18.818Z,1013.10
2018-09-11T08:17:18.756Z,1013.14
2018-09-11T08:18:18.749Z,1013.14
2018-09-11T08:19:18.779Z,1013.11
2018-09-11T08:20:18.759Z,1013.12
2018-09-11T08:21:18.760Z,1013.09
2018-09-11T08:22:18.758Z,1013.12
2018-09-11T08:23:18.764Z,1013.14
2018-09-11T08:24:18.771Z,1013.13
2018-09-11T08:25:18.766Z,1013.16
2018-09-11T08:26:18.765Z,1013.16
2018-09-11T08:27:18.771Z,1013.19
2018-09-11T08:28:18.788Z,1013.20
2018-09-11T08:29:18.817Z,1013.21
2018-09-11T08:30:18.788Z,1013.20
2018-09-11T08:31:18.794Z,1013.22
2018-09-11T08:32:18.790Z,1013.21
2018-09-11T08:33:18.792Z,1013.20
2018-09-11T08:34:18.807Z,1013.18
2018-09-11T08:35:18.798Z,1013.17
2018-09-11T08:36:18.803Z,1013.20
2018-09-11T08:37:18.803Z,1013.20
2018-09-11T08:38:18.803Z,1013.21
2018-09-11T08:39:18.832Z,1013.18
2018-09-11T08:40:18.814Z,1013.17
2018-09-11T08:41:18.828Z,1013.16
2018-09-11T08:42:18.824Z,1013.16
2018-09-11T08:43:18.828Z,1013.16
2018-09-11T08:44:18.831Z,1013.16
2018-09-11T08:45:18.846Z,1013.15
2018-09-11T08:46:18.835Z,1013.14
2018-09-11T08:47:18.834Z,1013.17
2018-09-11T08:48:18.842Z,1013.21
2018-09-11T08:49:18.843Z,1013.19
2018-09-11T08:50:18.846Z,1013.15
2018-09-11T08:51:18.858Z,1013.17
2018-09-11T08:52:18.925Z,1013.17
2018-09-11T08:53:18.862Z,1013.16
2018-09-11T08:54:18.860Z,1013.14
2018-09-11T08:55:18.874Z,1013.15
2018-09-11T08:56:18.865Z,1013.17
2018-09-11T08:57:18.871Z,1013.14
2018-09-11T08:58:18.875Z,1013.14
2018-09-11T08:59:18.908Z,1013.12
2018-09-11T09:00:18.885Z,1013.14
2018-09-11T09:01:18.883Z,1013.17
2018-09-11T09:02:18.890Z,1013.17
2018-09-11T09:03:18.914Z,1013.20
2018-09-11T09:04:18.900Z,1013.16
2018-09-11T09:05:18.902Z,1013.19
2018-09-11T09:06:18.902Z,1013.19
2018-09-11T09:07:18.907Z,1013.17
2018-09-11T09:08:18.914Z,1013.15
2018-09-11T09:09:18.913Z,1013.16
2018-09-11T09:10:18.919Z,1013.15
2018-09-11T09:11:18.944Z,1013.12
2018-09-11T09:12:18.930Z,1013.14
2018-09-11T09:13:18.935Z,1013.15
2018-09-11T09:14:18.950Z,1013.17
2018-09-11T09:15:18.970Z,1013.16
2018-09-11T09:16:18.934Z,1013.18
2018-09-11T09:17:18.967Z,1013.17
2018-09-11T09:18:18.943Z,1013.19
2018-09-11T09:19:18.953Z,1013.24
2018-09-11T09:20:18.954Z,1013.24
2018-09-11T09:21:18.971Z,1013.23
2018-09-11T09:22:18.954Z,1013.19
2018-09-11T09:23:18.962Z,1013.21
2018-09-11T09:24:18.964Z,1013.23
2018-09-11T09:25:18.965Z,1013.22
2018-09-11T09:26:18.968Z,1013.15
2018-09-11T09:27:18.985Z,1013.16
2018-09-11T09:28:18.973Z,1013.18
2018-09-11T09:29:18.982Z,1013.20
2018-09-11T09:30:18.980Z,1013.20
2018-09-11T09:31:18.989Z,1013.20
2018-09-11T09:32:18.996Z,1013.14
2018-09-11T09:33:18.991Z,1013.18
2018-09-11T09:34:19.001Z,1013.15
2018-09-11T09:35:19.008Z,1013.16
2018-09-11T09:36:19.051Z,1013.13
2018-09-11T09:37:19.017Z,1013.15
2018-09-11T09:38:19.015Z,1013.09
2018-09-11T09:39:19.029Z,1013.10
2018-09-11T09:40:19.022Z,1013.11
2018-09-11T09:41:19.027Z,1013.11
2018-09-11T09:42:19.031Z,1013.11
2018-09-11T09:43:19.038Z,1013.12
2018-09-11T09:44:19.047Z,1013.07
2018-09-11T09:45:19.036Z,1013.03
2018-09-11T09:46:19.043Z,1013.05
2018-09-11T09:47:19.071Z,1013.06
2018-09-11T09:48:19.095Z,1013.07
2018-09-11T09:49:19.050Z,1013.11
2018-09-11T09:50:19.061Z,1013.08
2018-09-11T09:51:19.158Z,1013.08
2018-09-11T09:52:19.075Z,1013.07
2018-09-11T09:53:19.119Z,1013.07
2018-09-11T09:54:19.083Z,1013.04
2018-09-11T09:55:19.086Z,1013.00
2018-09-11T09:56:19.078Z,1013.04
2018-09-11T09:57:19.265Z,1013.04
2018-09-11T09:58:19.127Z,1013.04
2018-09-11T09:59:19.089Z,1012.97
2018-09-11T10:00:19.166Z,1012.97
2018-09-11T10:01:19.188Z,1012.99
2018-09-11T10:02:19.168Z,1013.03
2018-09-11T10:03:19.137Z,1012.99
2018-09-11T10:04:19.165Z,1012.94
2018-09-11T10:05:19.112Z,1013.00
2018-09-11T10:06:19.255Z,1012.97
2018-09-11T10:07:19.120Z,1012.94
2018-09-11T10:08:19.123Z,1012.91
2018-09-11T10:09:19.140Z,1012.93
2018-09-11T10:10:19.227Z,1012.94
2018-09-11T10:11:19.141Z,1012.92
2018-09-11T10:12:19.160Z,1012.90
2018-09-11T10:13:19.174Z,1012.93
2018-09-11T10:14:19.157Z,1012.97
2018-09-11T10:15:19.207Z,1012.94
2018-09-11T10:16:19.174Z,1012.95
2018-09-11T10:17:19.195Z,1012.91
2018-09-11T10:18:19.183Z,1012.95
2018-09-11T10:19:19.179Z,1012.93
2018-09-11T10:20:19.235Z,1012.95
2018-09-11T10:21:19.193Z,1012.94
2018-09-11T10:22:19.231Z,1012.90
2018-09-11T10:23:19.189Z,1012.95
2018-09-11T10:24:19.219Z,1012.93
2018-09-11T10:25:19.191Z,1012.91
2018-09-11T10:26:19.306Z,1012.90
2018-09-11T10:27:19.210Z,1012.89
2018-09-11T10:28:19.204Z,1012.89
2018-09-11T10:29:19.219Z,1012.87
2018-09-11T10:30:19.230Z,1012.83
2018-09-11T10:31:19.224Z,1012.82
2018-09-11T10:32:19.242Z,1012.78
2018-09-11T10:33:19.244Z,1012.76
2018-09-11T10:34:19.244Z,1012.74
2018-09-11T10:35:19.265Z,1012.74
2018-09-11T10:36:19.237Z,1012.72
2018-09-11T10:37:19.250Z,1012.71
2018-09-11T10:38:19.243Z,1012.69
2018-09-11T10:39:19.262Z,1012.76
2018-09-11T10:40:19.250Z,1012.69
2018-09-11T10:41:19.260Z,1012.67
2018-09-11T10:42:19.282Z,1012.68
2018-09-11T10:43:19.303Z,1012.68
2018-09-11T10:44:19.296Z,1012.66
2018-09-11T10:45:19.610Z,1012.64
2018-09-11T10:46:19.302Z,1012.57
2018-09-11T10:47:19.308Z,1012.62
2018-09-11T10:48:19.294Z,1012.58
2018-09-11T10:49:19.305Z,1012.59
2018-09-11T10:50:19.311Z,1012.58
2018-09-11T10:51:19.318Z,1012.60
2018-09-11T10:52:19.332Z,1012.62
2018-09-11T10:53:19.313Z,1012.60
2018-09-11T10:54:19.319Z,1012.59
2018-09-11T10:55:19.344Z,1012.61
2018-09-11T10:56:19.330Z,1012.59
2018-09-11T10:57:19.330Z,1012.63
2018-09-11T10:58:19.377Z,1012.62
2018-09-11T10:59:19.336Z,1012.58
2018-09-11T11:00:19.354Z,1012.55
2018-09-11T11:01:19.353Z,1012.56
2018-09-11T11:02:19.389Z,1012.57
2018-09-11T11:03:19.355Z,1012.60
2018-09-11T11:04:19.356Z,1012.55
2018-09-11T11:05:19.368Z,1012.52
2018-09-11T11:06:19.373Z,1012.53
2018-09-11T11:07:19.372Z,1012.49
2018-09-11T11:08:19.377Z,1012.51
2018-09-11T11:09:19.382Z,1012.47
2018-09-11T11:10:19.401Z,1012.47
2018-09-11T11:11:19.396Z,1012.46
2018-09-11T11:12:19.397Z,1012.40
2018-09-11T11:13:19.405Z,1012.42
2018-09-11T11:14:19.413Z,1012.37
2018-09-11T11:15:19.415Z,1012.39
2018-09-11T11:16:19.438Z,1012.35
2018-09-11T11:17:19.433Z,1012.33
2018-09-11T11:18:19.430Z,1012.30
2018-09-11T11:19:19.439Z,1012.25
2018-09-11T11:20:19.455Z,1012.27
2018-09-11T11:21:19.445Z,1012.27
2018-09-11T11:22:19.453Z,1012.22
2018-09-11T11:23:19.466Z,1012.26
2018-09-11T11:24:19.483Z,1012.29
2018-09-11T11:25:19.472Z,1012.27
2018-09-11T11:26:19.480Z,1012.28
2018-09-11T11:27:19.552Z,1012.26
2018-09-11T11:28:19.477Z,1012.22
2018-09-11T11:29:19.500Z,1012.18
2018-09-11T11:30:19.489Z,1012.18
2018-09-11T11:31:19.498Z,1012.20
2018-09-11T11:32:19.516Z,1012.20
2018-09-11T11:33:19.515Z,1012.19
2018-09-11T11:34:19.507Z,1012.19
2018-09-11T11:35:19.528Z,1012.17
2018-09-11T11:36:19.712Z,1012.15
2018-09-11T11:37:19.788Z,1012.15
2018-09-11T11:38:19.526Z,1012.15
2018-09-11T11:39:19.532Z,1012.13
2018-09-11T11:40:19.549Z,1012.09
2018-09-11T11:41:19.544Z,1012.10
2018-09-11T11:42:19.643Z,1012.09
2018-09-11T11:43:19.543Z,1012.09
2018-09-11T11:44:19.572Z,1012.11
2018-09-11T11:45:19.576Z,1012.03
2018-09-11T11:46:19.560Z,1012.10
2018-09-11T11:47:19.575Z,1012.12
2018-09-11T11:48:19.646Z,1012.04
2018-09-11T11:49:19.589Z,1012.04
2018-09-11T11:50:19.583Z,1012.02
2018-09-11T11:51:19.588Z,1012.02
2018-09-11T11:52:19.606Z,1012.00
2018-09-11T11:53:19.599Z,1012.04
2018-09-11T11:54:19.606Z,1011.95
2018-09-11T11:55:19.653Z,1011.98
2018-09-11T11:56:19.613Z,1011.96
2018-09-11T11:57:19.622Z,1011.95
2018-09-11T11:58:19.641Z,1011.94
2018-09-11T11:59:19.633Z,1011.96
2018-09-11T12:00:19.702Z,1011.97
2018-09-11T12:01:19.665Z,1011.94
2018-09-11T12:02:19.654Z,1011.96
2018-09-11T12:03:19.650Z,1011.97
2018-09-11T12:04:19.656Z,1011.94
2018-09-11T12:05:19.664Z,1011.89
2018-09-11T12:06:19.665Z,1011.90
2018-09-11T12:07:19.677Z,1011.92
2018-09-11T12:08:19.680Z,1011.90
2018-09-11T12:09:19.707Z,1011.80
2018-09-11T12:10:19.692Z,1011.85
2018-09-11T12:11:19.697Z,1011.84
2018-09-11T12:12:19.773Z,1011.79
2018-09-11T12:13:19.704Z,1011.79
2018-09-11T12:14:19.711Z,1011.82
2018-09-11T12:15:19.721Z,1011.82
2018-09-11T12:16:19.792Z,1011.77
2018-09-11T12:17:19.772Z,1011.81
2018-09-11T12:18:19.732Z,1011.77
2018-09-11T12:19:19.737Z,1011.75
2018-09-11T12:20:19.744Z,1011.75
2018-09-11T12:21:19.754Z,1011.74
2018-09-11T12:22:19.750Z,1011.72
2018-09-11T12:23:19.761Z,1011.70